Flight Track Log - Related Links

Times and Time Zones

All times are in EDT time to prevent confusion due to time zone crossing. See the TPA705 flight status page for this flight to view local times or setup timezone preferences in your user account.


Time Position Orientation Groundspeed Altitude Reporting Facility
EDT Latitude Longitude Course Direction KTS MPH feet Rate Location/Type
Sun 09:14:00 AM 25.7853 -80.2903 109° East 151 174 1,600  Level Miami Center
Sun 09:15:08 AM 25.7639 -80.2206 109° East 266 306 5,500 3,636 Climbing Miami Center
Sun 09:15:39 AM 25.7522 -80.1856 110° East 265 305 7,600 5,284 Climbing Miami Center
Sun 09:16:15 AM 25.7133 -80.1453 137° Southeast 289 333 11,400 5,100 Climbing Miami Center
Sun 09:16:39 AM 25.6864 -80.1400 170° South 312 359 12,700 3,000 Climbing Miami Center
Sun 09:17:39 AM 25.6125 -80.1703 200° South 298 343 15,600 2,450 Climbing Miami Center
Sun 09:18:39 AM 25.5156 -80.1192 155° Southeast 321 369 17,600 3,000 Climbing Miami Center
Sun 09:19:39 AM 25.4206 -80.0636 152° Southeast 352 405 21,600 3,650 Climbing Miami Center
Sun 09:20:39 AM 25.3197 -80.0014 151° Southeast 384 442 24,900 3,150 Climbing Miami Center
Sun 09:21:39 AM 25.2167 -79.9297 148° Southeast 409 471 27,900 2,700 Climbing Miami Center
Sun 09:22:39 AM 25.1075 -79.8514 147° Southeast 446 513 30,300 2,450 Climbing Miami Center
Sun 09:23:39 AM 24.9942 -79.7728 148° Southeast 465 535 32,800 2,950 Climbing Miami Center
Sun 09:24:39 AM 24.8764 -79.7014 151° Southeast 480 552 36,200 2,900 Climbing Miami Center
Sun 09:25:39 AM 24.7519 -79.6575 162° South 480 552 38,600 2,050 Climbing Miami Center
Sun 09:26:39 AM 24.6253 -79.6203 165° South 468 539 40,300 1,200 Climbing Miami Center
Sun 09:27:39 AM 24.4881 -79.5783 164° South 468 539 41,000 350 Climbing Miami Center
Sun 09:28:39 AM 24.3614 -79.5344 162° South 468 539 41,000  Level Miami Center
Sun 09:29:39 AM 24.2367 -79.4978 165° South 473 544 41,000  Level Miami Center
Sun 09:30:39 AM 24.1119 -79.4586 164° South 473 544 41,000  Level Miami Center
Sun 09:31:39 AM 23.9872 -79.4175 163° South 473 544 41,000  Level Miami Center
Sun 09:33:00 AM 23.8365 -79.3596 161° South  Level FlightAware Approximate
Sun 09:40:00 AM 23.0548 -79.0614 161° South  Level FlightAware Approximate
Sun 09:41:00 AM 22.9431 -79.0191 161° South  Level FlightAware Approximate
Sun 09:42:00 AM 22.8314 -78.9768 161° South  Level FlightAware Approximate
Sun 09:43:00 AM 22.7196 -78.9347 161° South  Level FlightAware Approximate
Sun 09:44:00 AM 22.6079 -78.8926 161° South  Level FlightAware Approximate
Sun 09:45:00 AM 22.4916 -78.8702 172° South  Level FlightAware Approximate
Sun 09:46:00 AM 22.3743 -78.8534 172° South  Level FlightAware Approximate
Sun 09:47:00 AM 22.2570 -78.8366 172° South  Level FlightAware Approximate
Sun 09:48:00 AM 22.1397 -78.8199 172° South  Level FlightAware Approximate
Sun 09:49:00 AM 22.0224 -78.8032 172° South  Level FlightAware Approximate
Sun 09:50:00 AM 21.9075 -78.7735 165° South  Level FlightAware Approximate
Sun 09:51:00 AM 21.7932 -78.7409 165° South  Level FlightAware Approximate
Sun 09:52:00 AM 21.6788 -78.7082 165° South  Level FlightAware Approximate
Sun 09:53:00 AM 21.5644 -78.6757 165° South  Level FlightAware Approximate
Sun 09:54:00 AM 21.4501 -78.6431 165° South  Level FlightAware Approximate
Sun 09:55:00 AM 21.3357 -78.6106 165° South  Level FlightAware Approximate
Sun 09:56:00 AM 21.2213 -78.5782 165° South  Level FlightAware Approximate
Sun 09:57:00 AM 21.1069 -78.5459 165° South  Level FlightAware Approximate
Sun 09:58:00 AM 20.9925 -78.5135 165° South  Level FlightAware Approximate
Sun 09:59:00 AM 20.8781 -78.4813 165° South  Level FlightAware Approximate
Sun 10:00:00 AM 20.7636 -78.4490 165° South  Level FlightAware Approximate
Sun 10:01:00 AM 20.6492 -78.4168 165° South  Level FlightAware Approximate
Sun 10:02:00 AM 20.5348 -78.3847 165° South  Level FlightAware Approximate
Sun 10:03:00 AM 20.4203 -78.3526 165° South  Level FlightAware Approximate
Sun 10:04:00 AM 20.3059 -78.3206 165° South  Level FlightAware Approximate
Sun 10:05:00 AM 20.1915 -78.2886 165° South  Level FlightAware Approximate
Sun 10:06:00 AM 20.0770 -78.2567 165° South  Level FlightAware Approximate
Sun 10:07:00 AM 19.9625 -78.2248 165° South  Level FlightAware Approximate
Sun 10:08:00 AM 19.8481 -78.1927 165° South  Level FlightAware Approximate
Sun 10:09:00 AM 19.7338 -78.1605 165° South  Level FlightAware Approximate
Sun 10:10:00 AM 19.6194 -78.1284 165° South  Level FlightAware Approximate
Sun 10:11:00 AM 19.5050 -78.0963 165° South  Level FlightAware Approximate
Sun 10:12:00 AM 19.3906 -78.0643 165° South  Level FlightAware Approximate
Sun 10:13:00 AM 19.2762 -78.0323 165° South  Level FlightAware Approximate
Sun 10:14:00 AM 19.1618 -78.0003 165° South  Level FlightAware Approximate
Sun 10:15:00 AM 19.0474 -77.9684 165° South  Level FlightAware Approximate
Sun 10:16:00 AM 18.9329 -77.9366 165° South  Level FlightAware Approximate
Sun 10:17:00 AM 18.8185 -77.9048 165° South  Level FlightAware Approximate
Sun 10:18:00 AM 18.7041 -77.8730 165° South  Level FlightAware Approximate
Sun 10:19:00 AM 18.5897 -77.8413 165° South  Level FlightAware Approximate
Sun 10:20:00 AM 18.4752 -77.8096 165° South  Level FlightAware Approximate
Sun 10:21:00 AM 18.3608 -77.7779 165° South  Level FlightAware Approximate
Sun 10:22:00 AM 18.2463 -77.7464 165° South  Level FlightAware Approximate
Sun 10:23:00 AM 18.1319 -77.7148 165° South  Level FlightAware Approximate
Sun 10:24:00 AM 18.0174 -77.6833 165° South  Level FlightAware Approximate
Sun 10:25:00 AM 17.9030 -77.6518 165° South  Level FlightAware Approximate
Sun 10:26:00 AM 17.7885 -77.6204 165° South  Level FlightAware Approximate
Sun 10:27:00 AM 17.6740 -77.5890 165° South  Level FlightAware Approximate
Sun 10:28:00 AM 17.5595 -77.5576 165° South  Level FlightAware Approximate
Sun 10:29:00 AM 17.4450 -77.5263 165° South  Level FlightAware Approximate
Sun 10:30:00 AM 17.3305 -77.4950 165° South  Level FlightAware Approximate
Sun 10:31:00 AM 17.2161 -77.4638 165° South  Level FlightAware Approximate
Sun 10:32:00 AM 17.1016 -77.4326 165° South  Level FlightAware Approximate
Sun 10:33:00 AM 16.9871 -77.4014 165° South  Level FlightAware Approximate
Sun 10:34:00 AM 16.8725 -77.3703 165° South  Level FlightAware Approximate
Sun 10:35:00 AM 16.7580 -77.3392 165° South  Level FlightAware Approximate
Sun 10:36:00 AM 16.6435 -77.3082 165° South  Level FlightAware Approximate
Sun 10:37:00 AM 16.5290 -77.2772 165° South  Level FlightAware Approximate
Sun 10:38:00 AM 16.4145 -77.2462 165° South  Level FlightAware Approximate
Sun 10:39:00 AM 16.2999 -77.2152 165° South  Level FlightAware Approximate
Sun 10:40:00 AM 16.1854 -77.1843 165° South  Level FlightAware Approximate
Sun 10:41:00 AM 16.0709 -77.1535 165° South  Level FlightAware Approximate
Sun 10:42:00 AM 15.9563 -77.1227 165° South  Level FlightAware Approximate
Sun 10:43:00 AM 15.8418 -77.0919 166° South  Level FlightAware Approximate
Sun 10:44:00 AM 15.7272 -77.0611 166° South  Level FlightAware Approximate
Sun 10:45:00 AM 15.6126 -77.0304 166° South  Level FlightAware Approximate
Sun 10:46:00 AM 15.4981 -76.9997 166° South  Level FlightAware Approximate
Sun 10:47:00 AM 15.3835 -76.9690 166° South  Level FlightAware Approximate
Sun 10:48:00 AM 15.2690 -76.9384 166° South  Level FlightAware Approximate
Sun 10:49:00 AM 15.1544 -76.9078 166° South  Level FlightAware Approximate
Sun 10:50:00 AM 15.0398 -76.8773 166° South  Level FlightAware Approximate
Sun 10:51:00 AM 14.9242 -76.8512 169° South  Level FlightAware Approximate
Sun 10:52:00 AM 14.8081 -76.8277 169° South  Level FlightAware Approximate
Sun 10:53:00 AM 14.6920 -76.8041 169° South  Level FlightAware Approximate
Sun 10:54:00 AM 14.5759 -76.7805 169° South  Level FlightAware Approximate
Sun 10:55:00 AM 14.4598 -76.7570 169° South  Level FlightAware Approximate
Sun 10:56:00 AM 14.3437 -76.7335 169° South  Level FlightAware Approximate
Sun 10:57:00 AM 14.2276 -76.7100 169° South  Level FlightAware Approximate
Sun 10:58:00 AM 14.1115 -76.6866 169° South  Level FlightAware Approximate
Sun 10:59:00 AM 13.9954 -76.6632 169° South  Level FlightAware Approximate
Sun 11:00:00 AM 13.8793 -76.6398 169° South  Level FlightAware Approximate
Sun 11:01:00 AM 13.7631 -76.6164 169° South  Level FlightAware Approximate
Sun 11:02:00 AM 13.6470 -76.5930 169° South  Level FlightAware Approximate
Sun 11:03:00 AM 13.5309 -76.5697 169° South  Level FlightAware Approximate
Sun 11:04:00 AM 13.4148 -76.5464 169° South  Level FlightAware Approximate
Sun 11:05:00 AM 13.2986 -76.5231 169° South  Level FlightAware Approximate
Sun 11:06:00 AM 13.1825 -76.4998 169° South  Level FlightAware Approximate
Sun 11:07:00 AM 13.0664 -76.4766 169° South  Level FlightAware Approximate
Sun 11:08:00 AM 12.9503 -76.4534 169° South  Level FlightAware Approximate
Sun 11:09:00 AM 12.8341 -76.4301 169° South  Level FlightAware Approximate
Sun 11:10:00 AM 12.7180 -76.4068 169° South  Level FlightAware Approximate
Sun 11:11:00 AM 12.6019 -76.3835 169° South  Level FlightAware Approximate
Sun 11:12:00 AM 12.4858 -76.3602 169° South  Level FlightAware Approximate
Sun 11:13:00 AM 12.3697 -76.3370 169° South  Level FlightAware Approximate
Sun 11:14:00 AM 12.2535 -76.3137 169° South  Level FlightAware Approximate
Sun 11:15:00 AM 12.1374 -76.2905 169° South  Level FlightAware Approximate
Sun 11:16:00 AM 12.0213 -76.2673 169° South  Level FlightAware Approximate
Sun 11:17:00 AM 11.9052 -76.2442 169° South  Level FlightAware Approximate
Sun 11:18:00 AM 11.7891 -76.2210 169° South  Level FlightAware Approximate
Sun 11:19:00 AM 11.6729 -76.1979 169° South  Level FlightAware Approximate
Sun 11:20:00 AM 11.5568 -76.1748 169° South  Level FlightAware Approximate
Sun 11:21:00 AM 11.4407 -76.1516 169° South  Level FlightAware Approximate
Sun 11:22:00 AM 11.3245 -76.1286 169° South  Level FlightAware Approximate
Sun 11:23:00 AM 11.2084 -76.1055 169° South  Level FlightAware Approximate
Sun 11:24:00 AM 11.0923 -76.0825 169° South  Level FlightAware Approximate
Sun 11:25:00 AM 10.9761 -76.0594 169° South  Level FlightAware Approximate
Sun 11:26:00 AM 10.8600 -76.0365 169° South  Level FlightAware Approximate
Sun 11:27:00 AM 10.7438 -76.0135 169° South  Level FlightAware Approximate
Sun 11:28:00 AM 10.6277 -75.9905 169° South  Level FlightAware Approximate
Sun 11:29:00 AM 10.5115 -75.9675 169° South  Level FlightAware Approximate
Sun 11:30:00 AM 10.3954 -75.9446 169° South  Level FlightAware Approximate
Sun 11:31:00 AM 10.2793 -75.9217 169° South  Level FlightAware Approximate
Sun 11:32:00 AM 10.1631 -75.8988 169° South  Level FlightAware Approximate
Sun 11:33:00 AM 10.0470 -75.8759 169° South  Level FlightAware Approximate
Sun 11:34:00 AM 9.9307 -75.8534 169° South  Level FlightAware Approximate
Sun 11:35:00 AM 9.8145 -75.8312 169° South  Level FlightAware Approximate
Sun 11:36:00 AM 9.6982 -75.8090 169° South  Level FlightAware Approximate
Sun 11:37:00 AM 9.5819 -75.7868 169° South  Level FlightAware Approximate
Sun 11:38:00 AM 9.4656 -75.7646 169° South  Level FlightAware Approximate
Sun 11:39:00 AM 9.3494 -75.7425 169° South  Level FlightAware Approximate
Sun 11:40:00 AM 9.2331 -75.7203 169° South  Level FlightAware Approximate
Sun 11:41:00 AM 9.1168 -75.6982 169° South  Level FlightAware Approximate
Sun 11:42:00 AM 9.0005 -75.6761 169° South  Level FlightAware Approximate
Sun 11:43:00 AM 8.8842 -75.6540 169° South  Level FlightAware Approximate
Sun 11:44:00 AM 8.7680 -75.6319 169° South  Level FlightAware Approximate
Sun 11:45:00 AM 8.6517 -75.6098 169° South  Level FlightAware Approximate
Sun 11:46:00 AM 8.5356 -75.5867 168° South  Level FlightAware Approximate
Sun 11:47:00 AM 8.4197 -75.5627 168° South  Level FlightAware Approximate
Sun 11:48:00 AM 8.3038 -75.5387 168° South  Level FlightAware Approximate
Sun 11:49:00 AM 8.1878 -75.5147 168° South  Level FlightAware Approximate
Sun 11:50:00 AM 8.0718 -75.4916 169° South  Level FlightAware Approximate
Sun 11:51:00 AM 7.9554 -75.4698 169° South  Level FlightAware Approximate
Sun 11:52:00 AM 7.8389 -75.4500 180° South  Level FlightAware Approximate
Sun 11:53:00 AM 7.7206 -75.4500 180° South  Level FlightAware Approximate
Sun 11:54:00 AM 7.6025 -75.4439 176° South  Level FlightAware Approximate
Sun 11:55:00 AM 7.4844 -75.4365 176° South  Level FlightAware Approximate
Sun 11:56:00 AM 7.3662 -75.4333 180° South  Level FlightAware Approximate
Sun 11:57:00 AM 7.2478 -75.4333 180° South  Level FlightAware Approximate
Sun 11:58:00 AM 7.1295 -75.4333 180° South  Level FlightAware Approximate
Sun 11:59:00 AM 7.0112 -75.4331 178° South  Level FlightAware Approximate
Sun 12:00:00 PM 6.8930 -75.4286 178° South  Level FlightAware Approximate
Sun 12:01:00 PM 6.7748 -75.4240 178° South  Level FlightAware Approximate
Sun 12:02:00 PM 6.6565 -75.4195 178° South  Level FlightAware Approximate
Sun 12:03:00 PM 6.5383 -75.4167 180° South  Level FlightAware Approximate
Sun 12:04:00 PM 6.4200 -75.4167 180° South  Level FlightAware Approximate
Sun 12:05:00 PM 6.3016 -75.4167 180° South  Level FlightAware Approximate
Sun 12:06:00 PM 6.1833 -75.4167 180° South  Level FlightAware Approximate
Sun 12:07:00 PM 6.1645 -75.4231 180° South  Level Estimated
Sun 12:08:00 PM 6.1645 -75.4231 North  Level Estimated
Sun 12:09:00 PM 6.1645 -75.4231 North  Level Estimated
Sun 12:10:00 PM 6.1645 -75.4231 North  Level Estimated
Sun 12:11:00 PM 6.1645 -75.4231 North  Level Estimated
Sun 12:12:00 PM 6.1645 -75.4231 North  Level Estimated
Sun 12:13:00 PM 6.1645 -75.4231 North  Level Estimated
Sun 12:14:00 PM 6.1645 -75.4231 North  Level Estimated
Sun 12:15:00 PM 6.1645 -75.4231 North  Level Estimated
Sun 12:16:00 PM 6.1645 -75.4231 North  Level Estimated
Sun 12:17:00 PM 6.1645 -75.4231 North  Level Estimated
Sun 12:18:00 PM 6.1645 -75.4231 North  Level Estimated
Sun 12:19:00 PM 6.1645 -75.4231 North  Level Estimated
Sun 12:20:00 PM 6.1645 -75.4231 North  Level Estimated
Sun 12:21:00 PM 6.1645 -75.4231 North  Level Estimated
Sun 12:22:00 PM 6.1645 -75.4231 North  Level Estimated
Sun 12:23:00 PM 6.1645 -75.4231 North  Level Estimated

Login

Don't have an account? Register now (free) for customized features, flight alerts, and more!